Terminal Aerodrome Forecast
Issued by NWS Denver/Boulder, CO

Home | Current Version | Previous Version | Graphics & Text | Print | Product List | Glossary On
Versions: 1 2 3 4 5 6 7 8 9 10 11 12 13 14 15 16 17 18 19 20 21 22 23 24 25 26 27 28 29 30 31 32 33 34 35 36 37 38 39 40 41 42 43 44 45 46 47 48 49 50
000
FTUS45 KBOU 302336
TAFDEN
TAF
KDEN 302336Z 3100/0106 17011KT P6SM FEW090 SCT150
     FM310200 17014KT P6SM VCSH SCT080 BKN140
      TEMPO 3102/3104 VRB15G25KT BKN090
     FM310400 16012KT P6SM SCT090 BKN130
     FM310800 22009KT P6SM SCT090 BKN120
     FM311400 31009KT P6SM VCSH SCT080 BKN120
     FM311800 01014G24KT P6SM VCSH SCT070 BKN110 PROB30 3120/3124
      5SM -TSRA BKN070CB
     FM010200 11009KT P6SM VCSH SCT060 BKN120=

USA.gov is the U.S. government's official web portal to all federal, state and local government web resources and services.